sensor_id;sensor_type;location;lat;lon;timestamp;temperature;humidity
20815;DHT22;10568;48.176;16.316;2023-08-06T00:00:10;16.10;99.90
20815;DHT22;10568;48.176;16.316;2023-08-06T00:02:36;16.10;99.90
20815;DHT22;10568;48.176;16.316;2023-08-06T00:05:02;16.00;99.90
20815;DHT22;10568;48.176;16.316;2023-08-06T00:07:28;16.00;99.90
20815;DHT22;10568;48.176;16.316;2023-08-06T00:09:54;16.00;99.90
20815;DHT22;10568;48.176;16.316;2023-08-06T00:12:19;16.00;99.90
20815;DHT22;10568;48.176;16.316;2023-08-06T00:14:45;16.00;99.90
20815;DHT22;10568;48.176;16.316;2023-08-06T00:17:15;16.00;99.90
20815;DHT22;10568;48.176;16.316;2023-08-06T00:19:40;16.00;99.90
20815;DHT22;10568;48.176;16.316;2023-08-06T00:22:06;15.90;99.90
20815;DHT22;10568;48.176;16.316;2023-08-06T00:24:32;15.90;99.90
20815;DHT22;10568;48.176;16.316;2023-08-06T00:26:58;15.90;99.90
20815;DHT22;10568;48.176;16.316;2023-08-06T00:29:23;15.90;99.90
20815;DHT22;10568;48.176;16.316;2023-08-06T00:31:49;15.90;99.90
20815;DHT22;10568;48.176;16.316;2023-08-06T00:34:15;15.90;99.90
20815;DHT22;10568;48.176;16.316;2023-08-06T00:36:40;15.90;99.90
20815;DHT22;10568;48.176;16.316;2023-08-06T00:39:06;15.90;99.90
20815;DHT22;10568;48.176;16.316;2023-08-06T00:41:32;15.90;99.90
20815;DHT22;10568;48.176;16.316;2023-08-06T00:43:58;15.80;99.90
20815;DHT22;10568;48.176;16.316;2023-08-06T00:46:24;15.90;99.90
20815;DHT22;10568;48.176;16.316;2023-08-06T00:48:51;15.90;99.90
20815;DHT22;10568;48.176;16.316;2023-08-06T00:51:16;15.80;99.90
20815;DHT22;10568;48.176;16.316;2023-08-06T00:53:42;15.80;99.90
20815;DHT22;10568;48.176;16.316;2023-08-06T00:56:09;15.80;99.90
20815;DHT22;10568;48.176;16.316;2023-08-06T00:58:35;15.80;99.90
20815;DHT22;10568;48.176;16.316;2023-08-06T01:01:02;15.80;99.90
20815;DHT22;10568;48.176;16.316;2023-08-06T01:03:27;15.80;99.90
20815;DHT22;10568;48.176;16.316;2023-08-06T01:05:53;15.80;99.90
20815;DHT22;10568;48.176;16.316;2023-08-06T01:13:46;15.70;99.90
20815;DHT22;10568;48.176;16.316;2023-08-06T01:16:17;15.70;99.90
20815;DHT22;10568;48.176;16.316;2023-08-06T01:18:42;15.70;99.90
20815;DHT22;10568;48.176;16.316;2023-08-06T01:21:18;15.70;99.90
20815;DHT22;10568;48.176;16.316;2023-08-06T01:23:45;15.70;99.90
20815;DHT22;10568;48.176;16.316;2023-08-06T01:28:56;15.60;99.90
20815;DHT22;10568;48.176;16.316;2023-08-06T01:31:37;15.70;99.90
20815;DHT22;10568;48.176;16.316;2023-08-06T01:34:05;15.70;99.90
20815;DHT22;10568;48.176;16.316;2023-08-06T01:36:31;15.60;99.90
20815;DHT22;10568;48.176;16.316;2023-08-06T01:38:58;15.60;99.90
20815;DHT22;10568;48.176;16.316;2023-08-06T01:41:23;15.60;99.90
20815;DHT22;10568;48.176;16.316;2023-08-06T01:43:49;15.60;99.90
20815;DHT22;10568;48.176;16.316;2023-08-06T01:46:15;15.60;99.90
20815;DHT22;10568;48.176;16.316;2023-08-06T01:48:40;15.60;99.90
20815;DHT22;10568;48.176;16.316;2023-08-06T01:51:06;15.60;99.90
20815;DHT22;10568;48.176;16.316;2023-08-06T01:53:32;15.60;99.90
20815;DHT22;10568;48.176;16.316;2023-08-06T01:55:58;15.60;99.90
20815;DHT22;10568;48.176;16.316;2023-08-06T01:58:24;15.60;99.90
20815;DHT22;10568;48.176;16.316;2023-08-06T02:00:49;15.60;99.90
20815;DHT22;10568;48.176;16.316;2023-08-06T02:03:15;15.60;99.90
20815;DHT22;10568;48.176;16.316;2023-08-06T02:05:41;15.60;99.90
20815;DHT22;10568;48.176;16.316;2023-08-06T02:08:07;15.60;99.90
20815;DHT22;10568;48.176;16.316;2023-08-06T02:10:33;15.60;99.90
20815;DHT22;10568;48.176;16.316;2023-08-06T02:12:59;15.50;99.90
20815;DHT22;10568;48.176;16.316;2023-08-06T02:15:24;15.50;99.90
20815;DHT22;10568;48.176;16.316;2023-08-06T02:17:50;15.50;99.90
20815;DHT22;10568;48.176;16.316;2023-08-06T02:20:16;15.50;99.90
20815;DHT22;10568;48.176;16.316;2023-08-06T02:22:41;15.50;99.90
20815;DHT22;10568;48.176;16.316;2023-08-06T02:25:07;15.50;99.90
20815;DHT22;10568;48.176;16.316;2023-08-06T02:27:33;15.50;99.90
20815;DHT22;10568;48.176;16.316;2023-08-06T02:29:59;15.50;99.90
20815;DHT22;10568;48.176;16.316;2023-08-06T02:32:25;15.50;99.90
20815;DHT22;10568;48.176;16.316;2023-08-06T02:34:50;15.50;99.90
20815;DHT22;10568;48.176;16.316;2023-08-06T02:37:16;15.50;99.90
20815;DHT22;10568;48.176;16.316;2023-08-06T02:39:42;15.50;99.90
20815;DHT22;10568;48.176;16.316;2023-08-06T02:42:09;15.50;99.90
20815;DHT22;10568;48.176;16.316;2023-08-06T02:44:35;15.40;99.90
20815;DHT22;10568;48.176;16.316;2023-08-06T02:47:01;15.40;99.90
20815;DHT22;10568;48.176;16.316;2023-08-06T02:49:26;15.40;99.90
20815;DHT22;10568;48.176;16.316;2023-08-06T02:51:52;15.40;99.90
20815;DHT22;10568;48.176;16.316;2023-08-06T02:54:19;15.40;99.90
20815;DHT22;10568;48.176;16.316;2023-08-06T02:56:45;15.40;99.90
20815;DHT22;10568;48.176;16.316;2023-08-06T02:59:11;15.40;99.90
20815;DHT22;10568;48.176;16.316;2023-08-06T03:01:37;15.40;99.90
20815;DHT22;10568;48.176;16.316;2023-08-06T03:04:03;15.40;99.90
20815;DHT22;10568;48.176;16.316;2023-08-06T03:06:28;15.40;99.90
20815;DHT22;10568;48.176;16.316;2023-08-06T03:08:54;15.40;99.90
20815;DHT22;10568;48.176;16.316;2023-08-06T03:11:20;15.40;99.90
20815;DHT22;10568;48.176;16.316;2023-08-06T03:13:49;15.40;99.90
20815;DHT22;10568;48.176;16.316;2023-08-06T03:16:15;15.40;99.90
20815;DHT22;10568;48.176;16.316;2023-08-06T03:18:41;15.40;99.90
20815;DHT22;10568;48.176;16.316;2023-08-06T03:21:07;15.40;99.90
20815;DHT22;10568;48.176;16.316;2023-08-06T03:23:32;15.40;99.90
20815;DHT22;10568;48.176;16.316;2023-08-06T03:26:02;15.40;99.90
20815;DHT22;10568;48.176;16.316;2023-08-06T03:28:28;15.40;99.90
20815;DHT22;10568;48.176;16.316;2023-08-06T03:31:01;15.40;99.90
20815;DHT22;10568;48.176;16.316;2023-08-06T03:33:27;15.40;99.90
20815;DHT22;10568;48.176;16.316;2023-08-06T03:35:53;15.40;99.90
20815;DHT22;10568;48.176;16.316;2023-08-06T03:38:19;15.40;99.90
20815;DHT22;10568;48.176;16.316;2023-08-06T03:40:45;15.40;99.90
20815;DHT22;10568;48.176;16.316;2023-08-06T03:43:11;15.40;99.90
20815;DHT22;10568;48.176;16.316;2023-08-06T03:45:37;15.40;99.90
20815;DHT22;10568;48.176;16.316;2023-08-06T03:48:02;15.40;99.90
20815;DHT22;10568;48.176;16.316;2023-08-06T03:50:28;15.40;99.90
20815;DHT22;10568;48.176;16.316;2023-08-06T03:52:54;15.50;99.90
20815;DHT22;10568;48.176;16.316;2023-08-06T03:55:19;15.50;99.90
20815;DHT22;10568;48.176;16.316;2023-08-06T03:57:45;15.40;99.90
20815;DHT22;10568;48.176;16.316;2023-08-06T04:00:11;15.50;99.90
20815;DHT22;10568;48.176;16.316;2023-08-06T04:02:38;15.50;99.90
20815;DHT22;10568;48.176;16.316;2023-08-06T04:05:04;15.50;99.90
20815;DHT22;10568;48.176;16.316;2023-08-06T04:07:29;15.50;99.90
20815;DHT22;10568;48.176;16.316;2023-08-06T04:09:58;15.50;99.90
20815;DHT22;10568;48.176;16.316;2023-08-06T04:12:24;15.50;99.90
20815;DHT22;10568;48.176;16.316;2023-08-06T04:14:51;15.50;99.90
20815;DHT22;10568;48.176;16.316;2023-08-06T04:17:18;15.50;99.90
20815;DHT22;10568;48.176;16.316;2023-08-06T04:19:56;15.50;99.90
20815;DHT22;10568;48.176;16.316;2023-08-06T04:22:24;15.50;99.90
20815;DHT22;10568;48.176;16.316;2023-08-06T04:24:50;15.60;99.90
20815;DHT22;10568;48.176;16.316;2023-08-06T04:27:17;15.60;99.90
20815;DHT22;10568;48.176;16.316;2023-08-06T04:29:43;15.60;99.90
20815;DHT22;10568;48.176;16.316;2023-08-06T04:32:09;15.60;99.90
20815;DHT22;10568;48.176;16.316;2023-08-06T04:34:36;15.60;99.90
20815;DHT22;10568;48.176;16.316;2023-08-06T04:37:03;15.60;99.90
20815;DHT22;10568;48.176;16.316;2023-08-06T04:39:29;15.60;99.90
20815;DHT22;10568;48.176;16.316;2023-08-06T04:41:56;15.60;99.90
20815;DHT22;10568;48.176;16.316;2023-08-06T04:44:24;15.60;99.90
20815;DHT22;10568;48.176;16.316;2023-08-06T04:46:50;15.60;99.90
20815;DHT22;10568;48.176;16.316;2023-08-06T04:49:16;15.60;99.90
20815;DHT22;10568;48.176;16.316;2023-08-06T04:51:42;15.60;99.90
20815;DHT22;10568;48.176;16.316;2023-08-06T04:54:07;15.60;99.90
20815;DHT22;10568;48.176;16.316;2023-08-06T04:56:33;15.60;99.90
20815;DHT22;10568;48.176;16.316;2023-08-06T04:58:59;15.60;99.90
20815;DHT22;10568;48.176;16.316;2023-08-06T05:01:25;15.70;99.90
20815;DHT22;10568;48.176;16.316;2023-08-06T05:03:51;15.70;99.90
20815;DHT22;10568;48.176;16.316;2023-08-06T05:06:16;15.70;99.90
20815;DHT22;10568;48.176;16.316;2023-08-06T05:08:42;15.70;99.90
20815;DHT22;10568;48.176;16.316;2023-08-06T05:11:09;15.70;99.90
20815;DHT22;10568;48.176;16.316;2023-08-06T05:13:34;15.70;99.90
20815;DHT22;10568;48.176;16.316;2023-08-06T05:16:00;15.70;99.90
20815;DHT22;10568;48.176;16.316;2023-08-06T05:18:26;15.70;99.90
20815;DHT22;10568;48.176;16.316;2023-08-06T05:20:51;15.70;99.90
20815;DHT22;10568;48.176;16.316;2023-08-06T05:23:17;15.70;99.90
20815;DHT22;10568;48.176;16.316;2023-08-06T05:25:43;15.70;99.90
20815;DHT22;10568;48.176;16.316;2023-08-06T05:28:08;15.70;99.90
20815;DHT22;10568;48.176;16.316;2023-08-06T05:30:38;15.70;99.90
20815;DHT22;10568;48.176;16.316;2023-08-06T05:33:04;15.70;99.90
20815;DHT22;10568;48.176;16.316;2023-08-06T05:35:29;15.80;99.90
20815;DHT22;10568;48.176;16.316;2023-08-06T05:37:55;15.70;99.90
20815;DHT22;10568;48.176;16.316;2023-08-06T05:40:21;15.70;99.90
20815;DHT22;10568;48.176;16.316;2023-08-06T05:42:46;15.80;99.90
20815;DHT22;10568;48.176;16.316;2023-08-06T05:45:12;15.80;99.90
20815;DHT22;10568;48.176;16.316;2023-08-06T05:47:38;15.90;99.90
20815;DHT22;10568;48.176;16.316;2023-08-06T05:50:03;15.90;99.90
20815;DHT22;10568;48.176;16.316;2023-08-06T05:52:29;15.90;99.90
20815;DHT22;10568;48.176;16.316;2023-08-06T05:54:55;15.90;99.90
20815;DHT22;10568;48.176;16.316;2023-08-06T05:57:20;16.00;99.90
20815;DHT22;10568;48.176;16.316;2023-08-06T05:59:46;16.00;99.90
20815;DHT22;10568;48.176;16.316;2023-08-06T06:02:12;16.00;99.90
20815;DHT22;10568;48.176;16.316;2023-08-06T06:04:38;16.00;99.90
20815;DHT22;10568;48.176;16.316;2023-08-06T06:07:04;16.00;99.90
20815;DHT22;10568;48.176;16.316;2023-08-06T06:09:29;16.00;99.90
20815;DHT22;10568;48.176;16.316;2023-08-06T06:11:55;16.10;99.90
20815;DHT22;10568;48.176;16.316;2023-08-06T06:14:21;16.10;99.90
20815;DHT22;10568;48.176;16.316;2023-08-06T06:16:46;16.10;99.90
20815;DHT22;10568;48.176;16.316;2023-08-06T06:19:12;16.20;99.90
20815;DHT22;10568;48.176;16.316;2023-08-06T06:21:39;16.20;99.90
20815;DHT22;10568;48.176;16.316;2023-08-06T06:24:05;16.20;99.90
20815;DHT22;10568;48.176;16.316;2023-08-06T06:26:32;16.30;99.90
20815;DHT22;10568;48.176;16.316;2023-08-06T06:28:58;16.30;99.90
20815;DHT22;10568;48.176;16.316;2023-08-06T06:31:23;16.30;99.90
20815;DHT22;10568;48.176;16.316;2023-08-06T06:33:51;16.30;99.90
20815;DHT22;10568;48.176;16.316;2023-08-06T06:36:20;16.40;99.90
20815;DHT22;10568;48.176;16.316;2023-08-06T06:38:45;16.40;99.90
20815;DHT22;10568;48.176;16.316;2023-08-06T06:41:12;16.40;99.90
20815;DHT22;10568;48.176;16.316;2023-08-06T06:43:37;16.50;99.90
20815;DHT22;10568;48.176;16.316;2023-08-06T06:46:05;16.50;99.90
20815;DHT22;10568;48.176;16.316;2023-08-06T06:48:32;16.50;99.90
20815;DHT22;10568;48.176;16.316;2023-08-06T06:50:58;16.50;99.90
20815;DHT22;10568;48.176;16.316;2023-08-06T06:53:24;16.60;99.90
20815;DHT22;10568;48.176;16.316;2023-08-06T06:56:00;16.60;99.90
20815;DHT22;10568;48.176;16.316;2023-08-06T06:58:26;16.70;99.90
20815;DHT22;10568;48.176;16.316;2023-08-06T07:00:52;16.70;99.90
20815;DHT22;10568;48.176;16.316;2023-08-06T07:03:19;16.70;99.90
20815;DHT22;10568;48.176;16.316;2023-08-06T07:05:44;16.80;99.90
20815;DHT22;10568;48.176;16.316;2023-08-06T07:08:10;16.80;99.90
20815;DHT22;10568;48.176;16.316;2023-08-06T07:10:38;16.90;99.90
20815;DHT22;10568;48.176;16.316;2023-08-06T07:13:05;16.80;99.90
20815;DHT22;10568;48.176;16.316;2023-08-06T07:15:31;16.80;99.90
20815;DHT22;10568;48.176;16.316;2023-08-06T07:17:57;16.90;99.90
20815;DHT22;10568;48.176;16.316;2023-08-06T07:20:22;16.90;99.90
20815;DHT22;10568;48.176;16.316;2023-08-06T07:22:48;16.90;99.90
20815;DHT22;10568;48.176;16.316;2023-08-06T07:25:16;17.00;99.90
20815;DHT22;10568;48.176;16.316;2023-08-06T07:27:41;17.00;99.90
20815;DHT22;10568;48.176;16.316;2023-08-06T07:30:08;17.00;99.90
20815;DHT22;10568;48.176;16.316;2023-08-06T07:32:34;17.10;99.90
20815;DHT22;10568;48.176;16.316;2023-08-06T07:34:59;17.00;99.90
20815;DHT22;10568;48.176;16.316;2023-08-06T07:37:29;17.10;99.90
20815;DHT22;10568;48.176;16.316;2023-08-06T07:39:55;17.10;99.90
20815;DHT22;10568;48.176;16.316;2023-08-06T07:42:21;17.20;99.90
20815;DHT22;10568;48.176;16.316;2023-08-06T07:44:55;17.20;99.90
20815;DHT22;10568;48.176;16.316;2023-08-06T07:47:21;17.20;99.90
20815;DHT22;10568;48.176;16.316;2023-08-06T07:49:47;17.30;99.90
20815;DHT22;10568;48.176;16.316;2023-08-06T07:52:13;17.40;99.90
20815;DHT22;10568;48.176;16.316;2023-08-06T07:54:39;17.50;99.90
20815;DHT22;10568;48.176;16.316;2023-08-06T07:57:05;17.50;99.90
20815;DHT22;10568;48.176;16.316;2023-08-06T07:59:31;17.50;99.90
20815;DHT22;10568;48.176;16.316;2023-08-06T08:01:56;17.50;99.90
20815;DHT22;10568;48.176;16.316;2023-08-06T08:04:23;17.50;99.90
20815;DHT22;10568;48.176;16.316;2023-08-06T08:06:48;17.50;99.90
20815;DHT22;10568;48.176;16.316;2023-08-06T08:09:14;17.60;99.90
20815;DHT22;10568;48.176;16.316;2023-08-06T08:11:40;17.60;99.90
20815;DHT22;10568;48.176;16.316;2023-08-06T08:14:06;17.70;99.90
20815;DHT22;10568;48.176;16.316;2023-08-06T08:16:32;17.70;99.90
20815;DHT22;10568;48.176;16.316;2023-08-06T08:18:58;17.50;99.90
20815;DHT22;10568;48.176;16.316;2023-08-06T08:21:24;17.60;99.90
20815;DHT22;10568;48.176;16.316;2023-08-06T08:23:50;17.60;99.90
20815;DHT22;10568;48.176;16.316;2023-08-06T08:26:16;17.50;99.90
20815;DHT22;10568;48.176;16.316;2023-08-06T08:28:42;17.60;99.90
20815;DHT22;10568;48.176;16.316;2023-08-06T08:31:11;17.50;99.90
20815;DHT22;10568;48.176;16.316;2023-08-06T08:33:37;17.50;99.90
20815;DHT22;10568;48.176;16.316;2023-08-06T08:36:03;17.50;99.90
20815;DHT22;10568;48.176;16.316;2023-08-06T08:38:29;17.50;99.90
20815;DHT22;10568;48.176;16.316;2023-08-06T08:40:55;17.50;99.90
20815;DHT22;10568;48.176;16.316;2023-08-06T08:43:21;17.50;99.90
20815;DHT22;10568;48.176;16.316;2023-08-06T08:45:50;17.50;99.90
20815;DHT22;10568;48.176;16.316;2023-08-06T08:48:17;17.60;99.90
20815;DHT22;10568;48.176;16.316;2023-08-06T08:50:45;17.60;99.90
20815;DHT22;10568;48.176;16.316;2023-08-06T08:53:14;17.80;99.90
20815;DHT22;10568;48.176;16.316;2023-08-06T08:55:41;17.90;99.90
20815;DHT22;10568;48.176;16.316;2023-08-06T08:58:08;17.80;99.90
20815;DHT22;10568;48.176;16.316;2023-08-06T09:00:34;17.80;99.90
20815;DHT22;10568;48.176;16.316;2023-08-06T09:03:00;17.80;99.90
20815;DHT22;10568;48.176;16.316;2023-08-06T09:05:29;17.60;99.90
20815;DHT22;10568;48.176;16.316;2023-08-06T09:08:04;17.60;99.90
20815;DHT22;10568;48.176;16.316;2023-08-06T09:10:31;17.50;99.90
20815;DHT22;10568;48.176;16.316;2023-08-06T09:12:57;17.50;99.90
20815;DHT22;10568;48.176;16.316;2023-08-06T09:15:27;17.40;99.90
20815;DHT22;10568;48.176;16.316;2023-08-06T09:17:54;17.30;99.90
20815;DHT22;10568;48.176;16.316;2023-08-06T09:20:20;17.20;99.90
20815;DHT22;10568;48.176;16.316;2023-08-06T09:22:45;17.20;99.90
20815;DHT22;10568;48.176;16.316;2023-08-06T09:25:24;17.10;99.90
20815;DHT22;10568;48.176;16.316;2023-08-06T09:27:51;17.00;99.90
20815;DHT22;10568;48.176;16.316;2023-08-06T09:30:35;17.00;99.90
20815;DHT22;10568;48.176;16.316;2023-08-06T09:33:01;16.90;99.90
20815;DHT22;10568;48.176;16.316;2023-08-06T09:35:31;16.90;99.90
20815;DHT22;10568;48.176;16.316;2023-08-06T09:38:07;16.80;99.90
20815;DHT22;10568;48.176;16.316;2023-08-06T09:40:34;16.90;99.90
20815;DHT22;10568;48.176;16.316;2023-08-06T09:43:00;16.80;99.90
20815;DHT22;10568;48.176;16.316;2023-08-06T09:45:33;16.80;99.90
20815;DHT22;10568;48.176;16.316;2023-08-06T09:48:01;16.80;99.90
20815;DHT22;10568;48.176;16.316;2023-08-06T09:50:32;16.70;99.90
20815;DHT22;10568;48.176;16.316;2023-08-06T09:52:59;16.60;99.90
20815;DHT22;10568;48.176;16.316;2023-08-06T09:55:26;16.60;99.90
20815;DHT22;10568;48.176;16.316;2023-08-06T09:57:52;16.70;99.90
20815;DHT22;10568;48.176;16.316;2023-08-06T10:00:18;16.70;99.90
20815;DHT22;10568;48.176;16.316;2023-08-06T10:03:02;16.80;99.90
20815;DHT22;10568;48.176;16.316;2023-08-06T10:05:29;16.90;99.90
20815;DHT22;10568;48.176;16.316;2023-08-06T10:07:57;17.00;99.90
20815;DHT22;10568;48.176;16.316;2023-08-06T10:10:25;17.10;99.90
20815;DHT22;10568;48.176;16.316;2023-08-06T10:12:54;17.10;99.90
20815;DHT22;10568;48.176;16.316;2023-08-06T10:15:25;17.20;99.90
20815;DHT22;10568;48.176;16.316;2023-08-06T10:17:54;17.30;99.90
20815;DHT22;10568;48.176;16.316;2023-08-06T10:20:20;17.30;99.90
20815;DHT22;10568;48.176;16.316;2023-08-06T10:23:06;17.30;99.90
20815;DHT22;10568;48.176;16.316;2023-08-06T10:25:36;17.40;99.90
20815;DHT22;10568;48.176;16.316;2023-08-06T10:28:12;17.40;99.90
20815;DHT22;10568;48.176;16.316;2023-08-06T10:30:45;17.50;99.90
20815;DHT22;10568;48.176;16.316;2023-08-06T10:33:12;17.60;99.90
20815;DHT22;10568;48.176;16.316;2023-08-06T10:35:41;17.70;99.90
20815;DHT22;10568;48.176;16.316;2023-08-06T10:38:10;17.80;99.90
20815;DHT22;10568;48.176;16.316;2023-08-06T10:40:39;17.80;99.90
20815;DHT22;10568;48.176;16.316;2023-08-06T10:43:05;17.90;99.90
20815;DHT22;10568;48.176;16.316;2023-08-06T10:45:37;17.90;99.90
20815;DHT22;10568;48.176;16.316;2023-08-06T10:48:04;17.90;99.90
20815;DHT22;10568;48.176;16.316;2023-08-06T10:50:30;18.00;99.90
20815;DHT22;10568;48.176;16.316;2023-08-06T10:52:57;18.00;99.90
20815;DHT22;10568;48.176;16.316;2023-08-06T10:55:25;18.00;99.90
20815;DHT22;10568;48.176;16.316;2023-08-06T10:57:51;18.00;99.90
20815;DHT22;10568;48.176;16.316;2023-08-06T11:00:17;17.90;99.90
20815;DHT22;10568;48.176;16.316;2023-08-06T11:02:43;17.90;99.90
20815;DHT22;10568;48.176;16.316;2023-08-06T11:05:12;17.80;99.90
20815;DHT22;10568;48.176;16.316;2023-08-06T11:07:38;17.90;99.90
20815;DHT22;10568;48.176;16.316;2023-08-06T11:10:06;17.80;99.90
20815;DHT22;10568;48.176;16.316;2023-08-06T11:12:32;17.90;99.90
20815;DHT22;10568;48.176;16.316;2023-08-06T11:14:59;17.90;99.90
20815;DHT22;10568;48.176;16.316;2023-08-06T11:17:26;18.00;99.90
20815;DHT22;10568;48.176;16.316;2023-08-06T11:19:52;18.00;99.90
20815;DHT22;10568;48.176;16.316;2023-08-06T11:22:20;17.90;99.90
20815;DHT22;10568;48.176;16.316;2023-08-06T11:24:46;17.80;99.90
20815;DHT22;10568;48.176;16.316;2023-08-06T11:27:15;17.70;99.90
20815;DHT22;10568;48.176;16.316;2023-08-06T11:29:42;17.60;99.90
20815;DHT22;10568;48.176;16.316;2023-08-06T11:32:08;17.40;99.90
20815;DHT22;10568;48.176;16.316;2023-08-06T11:34:35;17.40;99.90
20815;DHT22;10568;48.176;16.316;2023-08-06T11:37:03;17.30;99.90
20815;DHT22;10568;48.176;16.316;2023-08-06T11:39:34;17.40;99.90
20815;DHT22;10568;48.176;16.316;2023-08-06T11:42:03;17.30;99.90
20815;DHT22;10568;48.176;16.316;2023-08-06T11:44:34;17.30;99.90
20815;DHT22;10568;48.176;16.316;2023-08-06T11:47:02;17.30;99.90
20815;DHT22;10568;48.176;16.316;2023-08-06T11:49:44;17.20;99.90
20815;DHT22;10568;48.176;16.316;2023-08-06T11:54:40;17.00;99.90
20815;DHT22;10568;48.176;16.316;2023-08-06T11:57:06;16.90;99.90
20815;DHT22;10568;48.176;16.316;2023-08-06T11:59:32;16.80;99.90
20815;DHT22;10568;48.176;16.316;2023-08-06T12:01:59;16.70;99.90
20815;DHT22;10568;48.176;16.316;2023-08-06T12:04:25;16.70;99.90
20815;DHT22;10568;48.176;16.316;2023-08-06T12:07:05;16.60;99.90
20815;DHT22;10568;48.176;16.316;2023-08-06T12:09:33;16.70;99.90
20815;DHT22;10568;48.176;16.316;2023-08-06T12:12:00;16.80;99.90
20815;DHT22;10568;48.176;16.316;2023-08-06T12:14:26;16.80;99.90
20815;DHT22;10568;48.176;16.316;2023-08-06T12:16:51;16.80;99.90
20815;DHT22;10568;48.176;16.316;2023-08-06T12:19:17;16.80;99.90
20815;DHT22;10568;48.176;16.316;2023-08-06T12:21:42;16.80;99.90
20815;DHT22;10568;48.176;16.316;2023-08-06T12:24:08;16.80;99.90
20815;DHT22;10568;48.176;16.316;2023-08-06T12:26:35;16.90;99.90
20815;DHT22;10568;48.176;16.316;2023-08-06T12:29:01;16.90;99.90
20815;DHT22;10568;48.176;16.316;2023-08-06T12:31:26;16.90;99.90
20815;DHT22;10568;48.176;16.316;2023-08-06T12:33:52;16.90;99.90
20815;DHT22;10568;48.176;16.316;2023-08-06T12:36:17;16.90;99.90
20815;DHT22;10568;48.176;16.316;2023-08-06T12:38:43;17.00;99.90
20815;DHT22;10568;48.176;16.316;2023-08-06T12:41:09;17.00;99.90
20815;DHT22;10568;48.176;16.316;2023-08-06T12:43:34;17.00;99.90
20815;DHT22;10568;48.176;16.316;2023-08-06T12:46:00;17.10;99.90
20815;DHT22;10568;48.176;16.316;2023-08-06T12:48:26;17.10;99.90
20815;DHT22;10568;48.176;16.316;2023-08-06T12:50:52;17.10;99.90
20815;DHT22;10568;48.176;16.316;2023-08-06T12:53:17;17.10;99.90
20815;DHT22;10568;48.176;16.316;2023-08-06T12:55:43;17.20;99.90
20815;DHT22;10568;48.176;16.316;2023-08-06T12:58:15;17.10;99.90
20815;DHT22;10568;48.176;16.316;2023-08-06T13:00:41;17.30;99.90
20815;DHT22;10568;48.176;16.316;2023-08-06T13:03:06;17.30;99.90
20815;DHT22;10568;48.176;16.316;2023-08-06T13:05:33;17.30;99.90
20815;DHT22;10568;48.176;16.316;2023-08-06T13:07:59;17.30;99.90
20815;DHT22;10568;48.176;16.316;2023-08-06T13:10:26;17.50;99.90
20815;DHT22;10568;48.176;16.316;2023-08-06T13:12:53;17.60;99.90
20815;DHT22;10568;48.176;16.316;2023-08-06T13:15:19;17.70;99.90
20815;DHT22;10568;48.176;16.316;2023-08-06T13:17:46;17.80;99.90
20815;DHT22;10568;48.176;16.316;2023-08-06T13:20:12;17.80;99.90
20815;DHT22;10568;48.176;16.316;2023-08-06T13:22:38;17.90;99.90
20815;DHT22;10568;48.176;16.316;2023-08-06T13:25:04;18.00;99.90
20815;DHT22;10568;48.176;16.316;2023-08-06T13:27:30;18.10;99.90
20815;DHT22;10568;48.176;16.316;2023-08-06T13:29:56;18.10;99.90
20815;DHT22;10568;48.176;16.316;2023-08-06T13:32:22;18.30;99.90
20815;DHT22;10568;48.176;16.316;2023-08-06T13:34:51;18.40;99.90
20815;DHT22;10568;48.176;16.316;2023-08-06T13:37:17;18.50;99.90
20815;DHT22;10568;48.176;16.316;2023-08-06T13:39:43;18.60;99.90
20815;DHT22;10568;48.176;16.316;2023-08-06T13:42:09;18.60;99.90
20815;DHT22;10568;48.176;16.316;2023-08-06T13:44:35;18.70;99.90
20815;DHT22;10568;48.176;16.316;2023-08-06T13:47:02;18.80;99.90
20815;DHT22;10568;48.176;16.316;2023-08-06T13:49:28;18.90;99.90
20815;DHT22;10568;48.176;16.316;2023-08-06T13:51:53;18.90;99.90
20815;DHT22;10568;48.176;16.316;2023-08-06T13:54:19;18.90;99.90
20815;DHT22;10568;48.176;16.316;2023-08-06T13:56:46;18.90;99.90
20815;DHT22;10568;48.176;16.316;2023-08-06T13:59:12;19.00;99.90
20815;DHT22;10568;48.176;16.316;2023-08-06T14:01:39;18.80;99.90
20815;DHT22;10568;48.176;16.316;2023-08-06T14:04:05;19.00;99.90
20815;DHT22;10568;48.176;16.316;2023-08-06T14:06:34;19.10;99.90
20815;DHT22;10568;48.176;16.316;2023-08-06T14:09:00;19.10;99.90
20815;DHT22;10568;48.176;16.316;2023-08-06T14:11:26;19.10;99.90
20815;DHT22;10568;48.176;16.316;2023-08-06T14:13:52;19.10;99.90
20815;DHT22;10568;48.176;16.316;2023-08-06T14:16:18;19.10;99.90
20815;DHT22;10568;48.176;16.316;2023-08-06T14:18:44;19.10;99.90
20815;DHT22;10568;48.176;16.316;2023-08-06T14:21:09;19.00;99.90
20815;DHT22;10568;48.176;16.316;2023-08-06T14:23:36;19.00;99.90
20815;DHT22;10568;48.176;16.316;2023-08-06T14:26:02;19.00;99.90
20815;DHT22;10568;48.176;16.316;2023-08-06T14:28:28;19.00;99.90
20815;DHT22;10568;48.176;16.316;2023-08-06T14:30:54;18.90;99.90
20815;DHT22;10568;48.176;16.316;2023-08-06T14:33:21;18.90;99.90
20815;DHT22;10568;48.176;16.316;2023-08-06T14:35:47;18.80;99.90
20815;DHT22;10568;48.176;16.316;2023-08-06T14:38:13;18.80;99.90
20815;DHT22;10568;48.176;16.316;2023-08-06T14:40:39;18.70;99.90
20815;DHT22;10568;48.176;16.316;2023-08-06T14:43:06;18.50;99.90
20815;DHT22;10568;48.176;16.316;2023-08-06T14:45:32;18.40;99.90
20815;DHT22;10568;48.176;16.316;2023-08-06T14:47:59;18.30;99.90
20815;DHT22;10568;48.176;16.316;2023-08-06T14:50:25;18.30;99.90
20815;DHT22;10568;48.176;16.316;2023-08-06T14:52:53;18.30;99.90
20815;DHT22;10568;48.176;16.316;2023-08-06T14:55:25;18.40;99.90
20815;DHT22;10568;48.176;16.316;2023-08-06T14:57:52;18.40;99.90
20815;DHT22;10568;48.176;16.316;2023-08-06T15:00:19;18.40;99.90
20815;DHT22;10568;48.176;16.316;2023-08-06T15:02:46;18.30;99.90
20815;DHT22;10568;48.176;16.316;2023-08-06T15:05:12;18.40;99.90
20815;DHT22;10568;48.176;16.316;2023-08-06T15:07:38;18.40;99.90
20815;DHT22;10568;48.176;16.316;2023-08-06T15:10:06;18.30;99.90
20815;DHT22;10568;48.176;16.316;2023-08-06T15:15:55;18.20;99.90
20815;DHT22;10568;48.176;16.316;2023-08-06T15:18:21;18.30;99.90
20815;DHT22;10568;48.176;16.316;2023-08-06T15:20:48;18.20;99.90
20815;DHT22;10568;48.176;16.316;2023-08-06T15:23:14;18.20;99.90
20815;DHT22;10568;48.176;16.316;2023-08-06T15:25:40;18.20;99.90